Time;durP1;ratioP1;P1;durP2;ratioP2;P2;SDS_P1;SDS_P2;PMS_P1;PMS_P2;Temp;Humidity;BMP_temperature;BMP_pressure;BME280_temperature;BME280_humidity;BME280_pressure;Samples;Min_cycle;Max_cycle;Signal;HPM_P1;HPM_P2
2023/04/03 00:03:03;;;;;;;5.40;1.40;;;;;;;1.70;78.33;101296.22;105256;1256;99153;-77
2023/04/03 00:05:48;;;;;;;5.00;1.70;;;;;;;1.70;78.43;101297.45;105256;1262;98661;-76
2023/04/03 00:08:35;;;;;;;4.70;2.00;;;;;;;1.69;78.13;101304.73;105224;1261;101308;-77
2023/04/03 00:11:20;;;;;;;3.80;1.50;;;;;;;1.67;78.07;101310.33;105205;1259;99676;-74
2023/04/03 00:14:06;;;;;;;3.30;1.20;;;;;;;1.66;77.74;101307.43;105247;1257;98858;-77
2023/04/03 00:16:51;;;;;;;6.20;1.80;;;;;;;1.64;77.28;101307.04;105165;1258;97990;-77
2023/04/03 00:19:37;;;;;;;3.10;1.50;;;;;;;1.63;77.24;101308.02;105367;1259;98383;-78
2023/04/03 00:22:23;;;;;;;2.10;1.10;;;;;;;1.60;76.97;101309.27;105516;1264;102616;-78
2023/04/03 00:25:09;;;;;;;3.50;2.40;;;;;;;1.57;76.93;101307.70;105491;1260;99064;-77
2023/04/03 00:27:55;;;;;;;4.10;1.30;;;;;;;1.55;77.03;101309.27;105293;1260;99291;-79
2023/04/03 00:30:40;;;;;;;1.70;1.20;;;;;;;1.51;76.91;101305.50;105187;1259;97944;-76
2023/04/03 00:33:26;;;;;;;6.60;2.20;;;;;;;1.48;76.46;101306.95;105050;1263;97959;-77
2023/04/03 00:36:12;;;;;;;2.10;1.20;;;;;;;1.46;76.22;101310.83;105106;1260;101318;-77
2023/04/03 00:38:57;;;;;;;3.90;1.50;;;;;;;1.44;76.49;101313.73;105072;1264;99200;-78
2023/04/03 00:41:43;;;;;;;3.50;1.50;;;;;;;1.43;76.33;101320.73;105224;1260;97875;-78
2023/04/03 00:44:28;;;;;;;3.30;1.70;;;;;;;1.39;76.09;101319.59;105207;1257;97946;-78
2023/04/03 00:47:17;;;;;;;2.20;1.40;;;;;;;1.37;76.08;101323.98;105086;1258;98479;-76
2023/04/03 00:50:03;;;;;;;2.70;1.00;;;;;;;1.34;75.75;101322.09;105199;1260;101375;-76
2023/04/03 00:52:50;;;;;;;2.60;1.20;;;;;;;1.33;75.82;101323.41;105136;1261;100300;-77
2023/04/03 00:55:37;;;;;;;2.30;1.20;;;;;;;1.30;75.40;101327.48;105105;1261;97884;-77
2023/04/03 00:58:34;;;;;;;6.10;1.60;;;;;;;1.27;75.55;101330.15;105160;1259;97950;-78
2023/04/03 01:01:23;;;;;;;5.80;1.30;;;;;;;1.25;75.57;101335.06;105250;1261;98493;-76
2023/04/03 01:04:31;;;;;;;2.50;1.30;;;;;;;1.22;75.33;101339.15;105093;1263;102128;-76
2023/04/03 01:07:21;;;;;;;3.00;1.50;;;;;;;1.19;75.24;101345.51;105137;1264;100655;-77
2023/04/03 01:10:11;;;;;;;2.90;1.40;;;;;;;1.16;75.07;101345.36;105287;1271;97954;-77
2023/04/03 01:12:57;;;;;;;2.80;1.10;;;;;;;1.14;75.08;101346.08;105179;1261;98084;-78
2023/04/03 01:15:42;;;;;;;2.00;1.00;;;;;;;1.12;74.98;101350.98;105266;1260;99665;-77
2023/04/03 01:18:28;;;;;;;4.80;1.70;;;;;;;1.10;74.86;101352.89;105148;1276;102364;-78
2023/04/03 01:21:45;;;;;;;5.50;2.10;;;;;;;1.07;74.65;101353.79;105216;1261;99981;-77
2023/04/03 01:24:33;;;;;;;3.00;1.40;;;;;;;1.03;74.84;101354.91;105342;1258;98559;-78
2023/04/03 01:27:18;;;;;;;5.20;1.50;;;;;;;1.01;74.69;101358.58;105483;1259;97985;-77
2023/04/03 01:30:05;;;;;;;2.20;1.40;;;;;;;0.99;74.76;101359.11;105169;1261;98047;-74
2023/04/03 01:32:51;;;;;;;2.10;1.10;;;;;;;0.96;74.80;101365.48;105391;1261;102558;-76
2023/04/03 01:35:37;;;;;;;2.70;1.30;;;;;;;0.93;74.86;101362.71;105338;1260;100332;-76
2023/04/03 01:38:22;;;;;;;2.90;1.40;;;;;;;0.90;74.71;101362.89;107519;1259;98972;-76
2023/04/03 01:41:08;;;;;;;4.40;1.80;;;;;;;0.87;74.79;101368.74;105282;1258;97940;-77
2023/04/03 01:43:54;;;;;;;5.10;1.50;;;;;;;0.84;74.67;101365.61;105266;1261;98563;-76
2023/04/03 01:46:42;;;;;;;5.80;1.40;;;;;;;0.80;74.67;101365.01;105287;1260;102745;-77
2023/04/03 01:49:27;;;;;;;3.90;1.60;;;;;;;0.75;74.70;101366.40;105289;1260;100416;-78
2023/04/03 01:52:13;;;;;;;7.10;1.80;;;;;;;0.71;74.67;101367.34;105275;1269;98029;-78
2023/04/03 01:54:58;;;;;;;4.50;1.60;;;;;;;0.68;74.62;101365.80;105258;1260;99238;-76
2023/04/03 01:57:44;;;;;;;5.20;1.80;;;;;;;0.65;74.88;101374.66;105242;1258;98479;-76
2023/04/03 02:00:30;;;;;;;4.10;1.70;;;;;;;0.62;74.78;101379.61;105200;1261;102067;-75
2023/04/03 02:03:16;;;;;;;2.90;1.60;;;;;;;0.59;74.96;101379.09;105197;1254;100304;-76
2023/04/03 02:06:02;;;;;;;3.90;1.50;;;;;;;0.57;75.25;101384.86;105220;1261;98957;-76
2023/04/03 02:08:48;;;;;;;4.10;1.80;;;;;;;0.53;75.11;101384.29;105302;1256;99219;-76
2023/04/03 02:11:33;;;;;;;3.30;1.40;;;;;;;0.48;74.95;101390.06;105507;1260;98439;-77
2023/04/03 02:14:20;;;;;;;3.50;1.20;;;;;;;0.44;75.13;101389.92;105403;1259;102058;-78
2023/04/03 02:17:08;;;;;;;6.40;1.30;;;;;;;0.41;75.13;101390.88;105119;1259;99417;-77
2023/04/03 02:19:53;;;;;;;3.50;1.60;;;;;;;0.39;75.28;101392.23;105315;1260;98972;-77
2023/04/03 02:22:39;;;;;;;3.90;1.40;;;;;;;0.36;75.33;101391.02;105348;1258;97964;-75
2023/04/03 02:25:25;;;;;;;4.40;1.10;;;;;;;0.34;75.28;101395.77;105464;1254;99244;-79
2023/04/03 02:28:11;;;;;;;4.10;1.60;;;;;;;0.30;75.19;101401.79;105349;1258;101349;-76
2023/04/03 02:30:56;;;;;;;8.60;1.90;;;;;;;0.29;75.35;101404.35;105320;1269;110253;-76
2023/04/03 02:33:42;;;;;;;2.20;1.30;;;;;;;0.26;75.44;101403.46;105270;1260;98985;-76
2023/04/03 02:36:28;;;;;;;3.30;1.50;;;;;;;0.24;75.29;101410.65;105350;1258;97909;-76
2023/04/03 02:39:17;;;;;;;3.90;2.00;;;;;;;0.21;75.41;101407.71;105273;1258;98407;-75
2023/04/03 02:42:03;;;;;;;2.40;1.20;;;;;;;0.18;75.52;101411.74;106116;1256;102608;-75
2023/04/03 02:44:49;;;;;;;2.00;1.40;;;;;;;0.15;75.45;101414.77;105241;1260;100089;-77
2023/04/03 02:47:34;;;;;;;3.30;1.40;;;;;;;0.13;75.51;101411.61;105350;1260;98446;-76
2023/04/03 02:50:20;;;;;;;3.50;1.40;;;;;;;0.09;75.60;101417.43;105350;1260;98149;-75
2023/04/03 02:53:05;;;;;;;2.10;1.40;;;;;;;0.08;75.75;101422.64;105174;1261;98457;-75
2023/04/03 02:55:51;;;;;;;2.90;1.40;;;;;;;0.06;75.76;101425.58;105194;1254;102593;-78
2023/04/03 02:58:36;;;;;;;4.40;1.60;;;;;;;0.03;75.79;101423.28;105343;1257;100277;-76
2023/04/03 03:01:22;;;;;;;3.20;1.40;;;;;;;0.01;75.79;101424.46;105459;1254;98039;-76
2023/04/03 03:04:07;;;;;;;3.20;1.50;;;;;;;-0.02;75.83;101427.85;105475;1260;97938;-75
2023/04/03 03:06:53;;;;;;;3.20;1.10;;;;;;;-0.04;75.86;101426.91;105312;1255;98614;-75
2023/04/03 03:09:38;;;;;;;2.70;1.00;;;;;;;-0.05;76.07;101429.45;105331;1260;102583;-77
2023/04/03 03:12:24;;;;;;;3.60;1.50;;;;;;;-0.08;76.14;101426.10;105359;1260;99569;-77
2023/04/03 03:15:10;;;;;;;3.90;2.10;;;;;;;-0.11;76.07;101424.02;105280;1260;98058;-77
2023/04/03 03:17:56;;;;;;;5.10;1.10;;;;;;;-0.13;76.14;101426.98;105170;1257;98527;-75
2023/04/03 03:20:41;;;;;;;3.10;1.10;;;;;;;-0.14;76.24;101430.38;105474;1258;98508;-75
2023/04/03 03:23:29;;;;;;;2.90;1.30;;;;;;;-0.15;76.25;101432.52;105431;1267;103558;-76
2023/04/03 03:26:15;;;;;;;4.50;1.30;;;;;;;-0.17;76.24;101434.42;105415;1258;99131;-76
2023/04/03 03:29:00;;;;;;;9.00;1.70;;;;;;;-0.18;76.40;101436.25;105618;1260;98358;-76
2023/04/03 03:31:46;;;;;;;4.10;1.40;;;;;;;-0.20;76.42;101432.87;105451;1254;99396;-76
2023/04/03 03:34:33;;;;;;;2.50;1.50;;;;;;;-0.22;76.41;101436.34;105476;1253;98481;-76
2023/04/03 03:37:18;;;;;;;1.90;1.10;;;;;;;-0.24;76.60;101442.05;105456;1263;102634;-77
2023/04/03 03:40:05;;;;;;;2.90;1.30;;;;;;;-0.24;76.58;101443.65;105342;1258;99168;-76
2023/04/03 03:42:51;;;;;;;3.40;1.10;;;;;;;-0.25;76.65;101446.02;105901;1260;97889;-77
2023/04/03 03:45:36;;;;;;;4.10;1.70;;;;;;;-0.27;76.57;101452.95;105399;1254;98150;-76
2023/04/03 03:48:21;;;;;;;4.40;1.50;;;;;;;-0.28;76.69;101449.88;105501;1254;99601;-77
2023/04/03 03:51:08;;;;;;;2.70;1.30;;;;;;;-0.29;76.68;101445.59;105482;1262;103556;-77
2023/04/03 03:53:55;;;;;;;3.30;1.30;;;;;;;-0.31;76.85;101444.09;105204;1263;99151;-75
2023/04/03 03:56:41;;;;;;;4.20;1.50;;;;;;;-0.32;76.81;101446.65;105348;1260;98979;-76
2023/04/03 03:59:28;;;;;;;2.30;1.30;;;;;;;-0.34;76.85;101448.02;105415;1257;97938;-77
2023/04/03 04:02:13;;;;;;;3.60;1.40;;;;;;;-0.35;77.04;101448.55;105423;1260;98471;-75
2023/04/03 04:05:02;;;;;;;4.70;1.70;;;;;;;-0.37;77.00;101454.83;105501;1260;102651;-75
2023/04/03 04:07:47;;;;;;;8.50;2.00;;;;;;;-0.39;76.91;101453.73;105282;1260;99527;-78
2023/04/03 04:10:35;;;;;;;4.20;1.40;;;;;;;-0.40;77.16;101454.14;105516;1269;98481;-76
2023/04/03 04:13:21;;;;;;;2.60;1.60;;;;;;;-0.42;77.24;101454.48;105894;1254;97934;-75
2023/04/03 04:16:07;;;;;;;4.20;1.60;;;;;;;-0.44;77.29;101452.87;105534;1258;97984;-78
2023/04/03 04:18:53;;;;;;;2.50;1.50;;;;;;;-0.47;77.36;101454.12;105417;1257;102606;-76
2023/04/03 04:21:41;;;;;;;4.70;1.40;;;;;;;-0.51;77.57;101454.85;105372;1254;100382;-77
2023/04/03 04:24:27;;;;;;;4.20;1.60;;;;;;;-0.54;77.66;101456.07;105232;1254;98741;-76
2023/04/03 04:27:13;;;;;;;8.10;2.10;;;;;;;-0.56;77.74;101449.56;105288;1260;97976;-75
2023/04/03 04:29:58;;;;;;;3.80;1.50;;;;;;;-0.58;77.96;101452.65;105945;1257;98466;-77
2023/04/03 04:32:43;;;;;;;4.70;1.60;;;;;;;-0.59;78.08;101453.09;105491;1257;101334;-76
2023/04/03 04:35:29;;;;;;;6.40;1.40;;;;;;;-0.61;78.28;101460.20;105356;1254;110952;-76
2023/04/03 04:38:15;;;;;;;3.30;1.70;;;;;;;-0.62;78.35;101461.32;105316;1259;99011;-76
2023/04/03 04:41:01;;;;;;;6.00;1.70;;;;;;;-0.63;78.43;101462.81;105307;1265;97956;-77
2023/04/03 04:43:50;;;;;;;3.60;1.60;;;;;;;-0.64;78.57;101464.10;105366;1258;98475;-77
2023/04/03 04:46:36;;;;;;;4.20;1.10;;;;;;;-0.64;78.67;101464.98;105352;1259;101321;-75
2023/04/03 04:49:22;;;;;;;3.60;1.50;;;;;;;-0.64;78.66;101465.89;105321;1270;99109;-77
2023/04/03 04:52:08;;;;;;;2.30;1.60;;;;;;;-0.65;78.83;101470.47;105419;1260;98020;-76
2023/04/03 04:54:54;;;;;;;4.40;1.60;;;;;;;-0.64;78.81;101473.40;105370;1259;98875;-78
2023/04/03 04:57:40;;;;;;;1.70;1.20;;;;;;;-0.64;78.88;101474.77;105352;1260;99331;-76
2023/04/03 05:00:26;;;;;;;2.30;1.40;;;;;;;-0.62;79.10;101475.73;105448;1257;102601;-76
2023/04/03 05:03:12;;;;;;;4.80;1.40;;;;;;;-0.61;79.11;101479.54;105562;1269;100332;-79
2023/04/03 05:05:59;;;;;;;6.10;2.40;;;;;;;-0.60;79.14;101484.55;105588;1260;98947;-78
2023/04/03 05:08:44;;;;;;;1.60;1.20;;;;;;;-0.58;79.29;101487.04;108487;1253;95518;-78
2023/04/03 05:11:29;;;;;;;4.00;1.60;;;;;;;-0.56;79.16;101488.67;108335;1256;95877;-79
2023/04/03 05:14:15;;;;;;;5.30;1.50;;;;;;;-0.55;79.01;101494.26;107405;1257;101345;-79
2023/04/03 05:17:00;;;;;;;4.60;1.20;;;;;;;-0.53;78.93;101496.41;105582;1258;100278;-77
2023/04/03 05:19:47;;;;;;;2.30;1.40;;;;;;;-0.53;78.82;101497.60;106309;1257;97879;-77
2023/04/03 05:22:34;;;;;;;3.80;1.60;;;;;;;-0.53;78.83;101500.05;105523;1257;97934;-79
2023/04/03 05:25:24;;;;;;;4.40;1.90;;;;;;;-0.52;78.71;101499.16;105264;1260;99116;-76
2023/04/03 05:28:10;;;;;;;7.10;1.40;;;;;;;-0.52;78.72;101501.93;105340;1254;102606;-78
2023/04/03 05:30:57;;;;;;;6.60;1.70;;;;;;;-0.49;78.81;101501.93;105276;1257;100205;-75
2023/04/03 05:33:44;;;;;;;4.40;1.90;;;;;;;-0.47;78.78;101506.20;105524;1257;98854;-76
2023/04/03 05:36:33;;;;;;;3.30;1.50;;;;;;;-0.43;79.09;101509.31;105459;1261;98707;-77
2023/04/03 05:39:22;;;;;;;3.20;1.40;;;;;;;-0.38;78.95;101513.33;105495;1260;97962;-76
2023/04/03 05:42:08;;;;;;;5.60;1.60;;;;;;;-0.36;78.83;101517.59;108455;1255;102653;-77
2023/04/03 05:44:53;;;;;;;2.80;1.40;;;;;;;-0.33;78.96;101517.40;107468;1255;99091;-77
2023/04/03 05:47:39;;;;;;;5.70;1.60;;;;;;;-0.29;78.60;101518.20;105357;1253;99040;-76
2023/04/03 05:50:25;;;;;;;3.70;2.00;;;;;;;-0.27;78.40;101520.70;105479;1253;98531;-78
2023/04/03 05:53:20;;;;;;;2.90;1.40;;;;;;;-0.22;78.45;101520.59;105517;1254;98387;-77
2023/04/03 05:56:06;;;;;;;3.50;1.60;;;;;;;-0.17;78.27;101524.11;105352;1259;102387;-76
2023/04/03 05:58:54;;;;;;;2.80;1.40;;;;;;;-0.14;78.05;101523.89;105231;1257;99060;-78
2023/04/03 06:01:41;;;;;;;4.10;1.80;;;;;;;-0.09;78.08;101525.55;105349;1262;98979;-77
2023/04/03 06:04:27;;;;;;;4.30;1.30;;;;;;;-0.04;77.69;101532.94;105423;1256;98342;-77
2023/04/03 06:07:16;;;;;;;7.70;1.90;;;;;;;-0.02;77.35;101532.27;105371;1257;97899;-78
2023/04/03 06:10:02;;;;;;;3.30;1.40;;;;;;;0.02;77.52;101533.98;106551;1257;102643;-76
2023/04/03 06:12:48;;;;;;;3.20;1.50;;;;;;;0.07;77.09;101538.57;105597;1253;99072;-76
2023/04/03 06:15:34;;;;;;;4.80;2.00;;;;;;;0.10;76.63;101538.74;105407;1261;97972;-77
2023/04/03 06:18:20;;;;;;;6.30;2.40;;;;;;;0.10;76.05;101544.20;105410;1260;98722;-78
2023/04/03 06:21:07;;;;;;;6.90;2.60;;;;;;;0.08;75.94;101544.66;105332;1254;98480;-77
2023/04/03 06:23:52;;;;;;;4.50;2.00;;;;;;;0.12;76.03;101540.19;106914;1257;101900;-77
2023/04/03 06:26:38;;;;;;;3.90;2.00;;;;;;;0.20;76.45;101544.60;105323;1256;99718;-78
2023/04/03 06:29:24;;;;;;;4.60;1.80;;;;;;;0.31;76.84;101547.91;105460;1254;98010;-77
2023/04/03 06:32:09;;;;;;;5.20;1.60;;;;;;;0.40;76.38;101553.46;105266;1260;97960;-77
2023/04/03 06:34:56;;;;;;;5.20;1.80;;;;;;;0.45;75.65;101559.98;105548;1258;98519;-78
2023/04/03 06:37:42;;;;;;;9.20;1.90;;;;;;;0.46;75.02;101561.15;105478;1258;101342;-77
2023/04/03 06:40:28;;;;;;;3.60;1.80;;;;;;;0.47;74.92;101559.86;105380;1255;100255;-76
2023/04/03 06:43:13;;;;;;;4.10;1.70;;;;;;;0.49;75.04;101565.66;105240;1259;99024;-75
2023/04/03 06:45:58;;;;;;;4.40;1.80;;;;;;;0.53;74.56;101568.98;105406;1257;97971;-79
2023/04/03 06:48:44;;;;;;;4.80;1.40;;;;;;;0.54;74.29;101569.58;105473;1256;98386;-76
2023/04/03 06:51:30;;;;;;;4.60;2.00;;;;;;;0.61;74.80;101573.20;105441;1257;102357;-77
2023/04/03 06:54:15;;;;;;;6.40;1.70;;;;;;;0.66;74.18;101576.70;105334;1258;99106;-77
2023/04/03 06:57:01;;;;;;;3.00;1.40;;;;;;;0.66;73.59;101579.34;105385;1256;97940;-77
2023/04/03 06:59:46;;;;;;;5.50;1.70;;;;;;;0.69;73.79;101582.14;105418;1254;99101;-79
2023/04/03 07:02:32;;;;;;;3.30;1.50;;;;;;;0.73;73.37;101581.35;105656;1256;97970;-79
2023/04/03 07:05:18;;;;;;;3.70;1.80;;;;;;;0.76;73.27;101582.15;105794;1257;102071;-78
2023/04/03 07:08:05;;;;;;;3.60;1.50;;;;;;;0.82;73.64;101581.44;105571;1254;99558;-78
2023/04/03 07:10:50;;;;;;;2.60;1.60;;;;;;;0.93;73.85;101586.73;105481;1260;98357;-76
2023/04/03 07:13:37;;;;;;;2.40;1.40;;;;;;;1.03;73.81;101584.08;105421;1260;97863;-76
2023/04/03 07:16:22;;;;;;;4.00;1.70;;;;;;;1.10;73.22;101588.35;105335;1258;98459;-77
2023/04/03 07:19:08;;;;;;;6.50;1.80;;;;;;;1.13;72.84;101592.73;105413;1257;101331;-76
2023/04/03 07:21:55;;;;;;;4.20;1.80;;;;;;;1.17;72.45;101590.67;107275;1253;101020;-78
2023/04/03 07:24:40;;;;;;;4.60;1.70;;;;;;;1.21;72.06;101598.20;105797;1259;98436;-77
2023/04/03 07:27:26;;;;;;;3.40;1.70;;;;;;;1.21;71.77;101600.30;105629;1257;97947;-77
2023/04/03 07:30:13;;;;;;;4.50;1.90;;;;;;;1.21;71.92;101600.24;105554;1257;97868;-77
2023/04/03 07:32:59;;;;;;;5.20;2.10;;;;;;;1.29;71.97;101602.76;106838;1257;101410;-81
2023/04/03 07:35:45;;;;;;;3.90;1.80;;;;;;;1.31;71.53;101604.36;105925;1256;99200;-76
2023/04/03 07:38:31;;;;;;;3.20;1.70;;;;;;;1.36;71.45;101604.55;105422;1260;99446;-80
2023/04/03 07:41:22;;;;;;;5.10;1.80;;;;;;;1.45;71.69;101602.71;106407;1258;98094;-81
2023/04/03 07:44:09;;;;;;;3.30;1.90;;;;;;;1.52;71.29;101603.59;106369;1255;98619;-81
2023/04/03 07:46:55;;;;;;;6.60;2.00;;;;;;;1.58;71.23;101607.27;106524;1257;102593;-84
2023/04/03 07:49:41;;;;;;;3.50;1.50;;;;;;;1.64;70.65;101612.34;106541;1255;99027;-84
2023/04/03 07:52:26;;;;;;;2.40;1.40;;;;;;;1.64;70.28;101615.48;106475;1256;98508;-81
2023/04/03 07:55:12;;;;;;;6.40;2.40;;;;;;;1.63;69.81;101614.11;105895;1257;97952;-80
2023/04/03 07:57:57;;;;;;;6.80;1.60;;;;;;;1.62;69.73;101607.89;105716;1254;98572;-79
2023/04/03 08:00:46;;;;;;;3.20;1.80;;;;;;;1.66;69.81;101610.96;105742;1260;101351;-82
2023/04/03 08:03:31;;;;;;;6.30;1.90;;;;;;;1.72;69.93;101607.53;106144;1257;100060;-81
2023/04/03 08:06:17;;;;;;;4.10;2.00;;;;;;;1.80;69.62;101604.81;106278;1254;98619;-81
2023/04/03 08:09:03;;;;;;;5.40;2.10;;;;;;;1.88;69.09;101610.62;106106;1257;98056;-81
2023/04/03 08:11:52;;;;;;;7.10;1.90;;;;;;;1.89;68.11;101610.76;107388;1257;98375;-80
2023/04/03 08:14:38;;;;;;;3.60;1.90;;;;;;;1.90;68.74;101607.98;106349;1261;101351;-80
2023/04/03 08:17:24;;;;;;;2.60;1.60;;;;;;;1.96;68.02;101610.39;106314;1253;99685;-81
2023/04/03 08:20:10;;;;;;;4.50;1.80;;;;;;;1.97;67.80;101612.05;106253;1261;99281;-83
2023/04/03 08:22:55;;;;;;;3.90;2.30;;;;;;;2.02;67.55;101623.90;106243;1255;98485;-81
2023/04/03 08:25:42;;;;;;;3.80;1.60;;;;;;;2.06;67.37;101614.05;106466;1260;98328;-82
2023/04/03 08:28:27;;;;;;;5.40;1.40;;;;;;;2.14;67.79;101618.80;106255;1257;102108;-80
2023/04/03 08:31:16;;;;;;;4.80;1.80;;;;;;;2.20;66.73;101612.71;106443;1256;100365;-79
2023/04/03 08:34:03;;;;;;;2.80;1.50;;;;;;;2.24;66.54;101611.58;106446;1259;97861;-86
2023/04/03 08:36:48;;;;;;;4.10;1.70;;;;;;;2.34;66.39;101610.33;106174;1256;95948;-84
2023/04/03 08:39:35;;;;;;;4.80;1.50;;;;;;;2.37;65.57;101614.64;106500;1260;97971;-83
2023/04/03 08:42:29;;;;;;;2.80;1.70;;;;;;;2.39;65.65;101622.12;106464;1257;102356;-81
2023/04/03 08:45:50;;;;;;;4.60;1.70;;;;;;;2.48;65.60;101626.73;106479;1253;100483;-78
2023/04/03 08:48:43;;;;;;;4.80;1.70;;;;;;;2.57;65.46;101622.71;108470;1253;98515;-81
2023/04/03 08:51:29;;;;;;;4.40;1.70;;;;;;;2.71;65.75;101625.27;107615;1254;97976;-85
2023/04/03 08:54:34;;;;;;;4.60;1.30;;;;;;;2.87;65.62;101625.45;106307;1258;96657;-80
2023/04/03 08:57:34;;;;;;;4.40;1.50;;;;;;;2.83;64.33;101618.04;106274;1253;103120;-81
2023/04/03 09:00:25;;;;;;;1.80;1.30;;;;;;;2.76;64.25;101625.02;106404;1260;100095;-83
2023/04/03 09:03:16;;;;;;;2.00;1.10;;;;;;;2.81;63.55;101628.74;105894;1256;99001;-80
2023/04/03 09:06:05;;;;;;;;;;;;;;;2.91;63.71;101630.40;106298;1255;97946;-81
2023/04/03 09:09:14;;;;;;;1.70;0.90;;;;;;;3.05;62.84;101632.25;106488;1258;97952;-81
2023/04/03 09:12:09;;;;;;;6.00;1.90;;;;;;;3.18;62.61;101623.64;106501;1255;102338;-81
2023/04/03 09:15:24;;;;;;;2.20;1.20;;;;;;;3.36;63.42;101625.46;106226;1255;100500;-83
2023/04/03 09:18:23;;;;;;;3.40;1.90;;;;;;;3.54;63.40;101633.27;105731;1254;99265;-81
2023/04/03 09:21:31;;;;;;;2.40;1.50;;;;;;;3.67;62.65;101625.33;107671;1258;97969;-81
2023/04/03 09:24:17;;;;;;;3.90;1.90;;;;;;;3.58;60.77;101625.16;106641;1259;98388;-80
2023/04/03 09:27:07;;;;;;;3.30;1.70;;;;;;;3.30;59.93;101625.92;106325;1257;102698;-77
2023/04/03 09:29:56;;;;;;;3.20;1.30;;;;;;;3.22;59.67;101642.59;105922;1255;99195;-80
2023/04/03 09:32:47;;;;;;;2.80;1.70;;;;;;;3.25;59.64;101640.48;105332;1277;97972;-76
2023/04/03 09:35:35;;;;;;;3.10;1.40;;;;;;;3.15;58.94;101639.55;105975;1257;97968;-80
2023/04/03 09:38:22;;;;;;;3.50;1.40;;;;;;;3.02;58.73;101637.70;105521;1259;97960;-76
2023/04/03 09:41:17;;;;;;;2.90;1.60;;;;;;;2.99;58.86;101636.71;106978;1254;102534;-78
2023/04/03 09:44:02;;;;;;;3.10;1.50;;;;;;;2.95;58.75;101629.08;106218;1253;99070;-78
2023/04/03 09:46:48;;;;;;;3.40;1.50;;;;;;;3.04;60.43;101632.11;105505;1254;105706;-78
2023/04/03 09:49:34;;;;;;;2.30;1.30;;;;;;;3.24;60.00;101638.52;105560;1253;98012;-77
2023/04/03 09:52:24;;;;;;;2.20;1.50;;;;;;;3.38;60.04;101642.44;105460;1253;97973;-77
2023/04/03 09:55:29;;;;;;;2.20;1.30;;;;;;;3.43;59.69;101643.83;105365;1257;101348;-76
2023/04/03 09:58:30;;;;;;;7.80;2.30;;;;;;;3.51;60.43;101641.44;105685;1255;99092;-78
2023/04/03 10:01:29;;;;;;;2.20;1.10;;;;;;;3.69;60.45;101641.45;105807;1256;98719;-79
2023/04/03 10:04:17;;;;;;;7.30;1.60;;;;;;;3.80;59.55;101638.14;105673;1256;98783;-78
2023/04/03 10:07:02;;;;;;;2.80;1.40;;;;;;;3.74;58.09;101656.58;105854;1257;98108;-80
2023/04/03 10:09:58;;;;;;;2.60;1.10;;;;;;;3.61;57.92;101648.21;105553;1253;101652;-81
2023/04/03 10:12:44;;;;;;;2.90;1.60;;;;;;;3.48;57.29;101650.86;106411;1258;99824;-82
2023/04/03 10:15:36;;;;;;;3.20;1.30;;;;;;;3.47;57.77;101652.17;105931;1253;98071;-79
2023/04/03 10:18:44;;;;;;;3.90;1.30;;;;;;;3.61;58.06;101648.41;106259;1255;97995;-83
2023/04/03 10:22:09;;;;;;;3.10;1.40;;;;;;;3.70;58.03;101641.69;106506;1257;98465;-82
2023/04/03 10:25:13;;;;;;;2.50;1.50;;;;;;;3.72;57.98;101644.73;106511;1259;101508;-83
2023/04/03 10:28:03;;;;;;;4.10;1.40;;;;;;;3.59;57.49;101644.70;106294;1255;99136;-83
2023/04/03 10:30:58;;;;;;;4.20;1.70;;;;;;;3.44;56.42;101649.92;106318;1257;98255;-82
2023/04/03 10:34:05;;;;;;;1.70;1.40;;;;;;;3.25;56.53;101651.89;106400;1255;97900;-82
2023/04/03 10:36:57;;;;;;;2.30;1.40;;;;;;;3.23;57.06;101647.33;106475;1253;97931;-82
2023/04/03 10:39:51;;;;;;;2.60;1.80;;;;;;;3.40;57.50;101637.84;106142;1255;102501;-85
2023/04/03 10:42:53;;;;;;;1.90;1.20;;;;;;;3.62;57.71;101640.08;106075;1257;99319;-79
2023/04/03 10:45:51;;;;;;;2.80;1.50;;;;;;;3.78;57.56;101627.11;106615;1258;98056;-82
2023/04/03 10:48:46;;;;;;;2.30;1.20;;;;;;;4.01;57.66;101614.23;106235;1255;97963;-82
2023/04/03 10:51:44;;;;;;;2.90;1.50;;;;;;;4.18;56.65;101619.59;106362;1253;100847;-86
2023/04/03 10:54:39;;;;;;;2.10;1.60;;;;;;;4.29;56.21;101628.80;106068;1258;101212;-84
2023/04/03 10:57:27;;;;;;;2.10;1.10;;;;;;;4.36;56.36;101622.93;106070;1255;100502;-83
2023/04/03 11:00:22;;;;;;;1.90;1.50;;;;;;;4.41;56.87;101615.27;105454;1261;98986;-78
2023/04/03 11:03:35;;;;;;;2.00;1.10;;;;;;;4.47;56.89;101620.05;105669;1255;98739;-81
2023/04/03 11:06:24;;;;;;;5.40;1.70;;;;;;;4.45;55.87;101620.41;106304;1253;97936;-82
2023/04/03 11:09:37;;;;;;;4.30;1.60;;;;;;;4.34;55.31;101623.36;106388;1260;102786;-79
2023/04/03 11:12:38;;;;;;;2.40;1.20;;;;;;;4.28;54.87;101610.11;106504;1259;100121;-78
2023/04/03 11:15:24;;;;;;;;;;;;;;;4.36;55.40;101606.45;105592;1257;98495;-76
2023/04/03 11:18:17;;;;;;;1.30;1.10;;;;;;;4.49;56.28;101602.37;105419;1257;97953;-75
2023/04/03 11:21:21;;;;;;;2.70;1.30;;;;;;;4.53;55.34;101601.66;105389;1255;97913;-78
2023/04/03 11:24:24;;;;;;;1.40;1.10;;;;;;;4.36;54.22;101606.42;105472;1258;102186;-76
2023/04/03 11:27:18;;;;;;;3.40;1.40;;;;;;;4.26;55.07;101605.88;105377;1256;100033;-77
2023/04/03 11:30:09;;;;;;;3.50;1.30;;;;;;;4.31;54.77;101600.10;105611;1260;99522;-78
2023/04/03 11:33:52;;;;;;;1.90;1.10;;;;;;;4.29;54.42;101601.02;105804;1256;98835;-78
2023/04/03 11:37:00;;;;;;;3.20;1.60;;;;;;;4.32;55.21;101593.50;105505;1255;98385;-77
2023/04/03 11:39:57;;;;;;;3.90;1.10;;;;;;;4.45;55.20;101585.59;105480;1253;103473;-76
2023/04/03 11:42:48;;;;;;;1.90;1.10;;;;;;;4.48;54.86;101590.40;105466;1255;99253;-76
2023/04/03 11:45:36;;;;;;;;;;;;;;;4.46;54.13;101593.45;105375;1257;99025;-76
2023/04/03 11:48:31;;;;;;;1.70;1.10;;;;;;;4.37;53.93;101583.71;105506;1257;98029;-78
2023/04/03 11:51:29;;;;;;;2.00;1.40;;;;;;;4.53;55.27;101582.45;105361;1253;97830;-76
2023/04/03 11:54:35;;;;;;;3.90;1.50;;;;;;;4.77;54.70;101581.67;105492;1257;103244;-77
2023/04/03 11:57:58;;;;;;;3.00;1.40;;;;;;;4.79;54.08;101581.04;105454;1259;99266;-77
2023/04/03 12:00:46;;;;;;;1.60;1.10;;;;;;;4.67;53.31;101583.74;105360;1271;97991;-76
2023/04/03 12:03:42;;;;;;;1.40;1.00;;;;;;;4.63;53.34;101590.77;105367;1253;97988;-76
2023/04/03 12:06:27;;;;;;;1.10;1.00;;;;;;;4.61;53.04;101583.20;105423;1259;99129;-77
2023/04/03 12:09:26;;;;;;;1.20;0.80;;;;;;;4.68;53.40;101573.90;105419;1255;101342;-76
2023/04/03 12:12:30;;;;;;;0.90;0.70;;;;;;;4.71;52.85;101589.43;105289;1270;99066;-76
2023/04/03 12:15:26;;;;;;;2.70;0.90;;;;;;;4.59;52.37;101588.30;105629;1253;97967;-76
2023/04/03 12:18:42;;;;;;;1.80;1.00;;;;;;;4.50;52.32;101583.73;106294;1257;98045;-78
2023/04/03 12:21:46;;;;;;;3.60;1.20;;;;;;;4.61;52.32;101575.42;105722;1260;98394;-83
2023/04/03 12:24:35;;;;;;;5.10;1.70;;;;;;;4.84;52.93;101569.77;106215;1253;103519;-79
2023/04/03 12:27:38;;;;;;;1.90;0.90;;;;;;;5.06;53.25;101571.98;105851;1253;100461;-81
2023/04/03 12:30:29;;;;;;;1.20;0.80;;;;;;;5.20;52.68;101578.25;106542;1254;98986;-83
2023/04/03 12:33:40;;;;;;;2.80;0.90;;;;;;;5.15;51.05;101581.15;105807;1255;97983;-79
2023/04/03 12:36:37;;;;;;;2.90;1.50;;;;;;;5.20;51.41;101568.70;105917;1257;99256;-83
2023/04/03 12:39:52;;;;;;;1.20;0.70;;;;;;;5.32;51.16;101564.67;106264;1257;102622;-81
2023/04/03 12:43:04;;;;;;;1.30;0.90;;;;;;;5.24;50.01;101572.92;106351;1257;99119;-79
2023/04/03 12:46:08;;;;;;;3.60;1.10;;;;;;;5.22;50.10;101567.48;105543;1255;99253;-82
2023/04/03 12:48:57;;;;;;;2.30;1.00;;;;;;;5.35;50.69;101563.46;106296;1258;97984;-82
2023/04/03 12:51:46;;;;;;;1.30;0.90;;;;;;;5.50;50.36;101557.27;106486;1253;98456;-80
2023/04/03 12:54:39;;;;;;;1.30;0.70;;;;;;;5.58;50.17;101552.27;106343;1257;102621;-84
2023/04/03 12:57:27;;;;;;;1.50;0.90;;;;;;;5.54;49.26;101567.55;106047;1253;99074;-76
2023/04/03 13:00:39;;;;;;;1.30;0.80;;;;;;;5.39;48.78;101566.31;107099;1257;98934;-76
2023/04/03 13:03:26;;;;;;;1.20;0.80;;;;;;;5.42;48.87;101558.84;105348;1257;99225;-76
2023/04/03 13:06:32;;;;;;;1.70;1.00;;;;;;;5.52;49.11;101557.42;105392;1259;98567;-75
2023/04/03 13:09:27;;;;;;;2.60;1.10;;;;;;;5.54;49.55;101560.10;105486;1257;102928;-75